マナウス の空港の天気 - METARとTAF

エドワルド ゴメス国際空港(マナウス) ( SBEG / MAO ) - ブラジル アマゾナス州マナウス
飛行場実況気象(Metar)
観測時間06/17 15:00 AMT (06/17 19:00 UTC)
風向・風速東北東 6m/s
視程10km以上
天気現象
全天の4割程度の雲 雲底高度 760m
気温32℃
湿度52%
気圧1011hPa
METARSBEG 171900Z 07011KT 9999 SCT025 32/21 Q1011
過去の天気等 Google飛行場航空写真 Wunderground天気予報

過去48時間のMETAR

飛行場予報(TAF)
発表時間: 6/17 11:00 AMT (6/17 15:00 UTC)
予報対象時間: 17日14時 AMT ~ 18日14時 AMT
風向・風速東 3m/s
視程8000m
全天の4割程度の雲 雲底高度 700m
少しの塔状積雲 雲底高度 910m
17日15時 AMT ~ 17日19時 AMT に一時的に
視程5000m
天気現象雷雨
全天の8割程度の雲 雲底高度 610m
少しの積乱雲 雲底高度 760m
17日20時 AMT ~ 17日22時 AMT に徐々に
風向・風速北北西 2m/s
18日6時 AMT ~ 18日8時 AMT に徐々に
風向・風速北北東 3m/s
少しの雲 雲底高度 460m
全天の4割程度の雲 雲底高度 1220m
18日11時 AMT ~ 18日13時 AMT に徐々に
風向・風速東北東 5m/s
全天の4割程度の雲 雲底高度 610m
少しの塔状積雲 雲底高度 760m
TAF SBEG 171500Z 1718/1818 08005KT 8000 SCT023 FEW030TCU TN24/1809Z TX31/1817Z
TEMPO 1719/1723 5000 TSRA BKN020 FEW025CB
BECMG 1800/1802 33004KT
BECMG 1810/1812 02005KT FEW015 SCT040
BECMG 1815/1817 07010KT SCT020 FEW025TCU RMK PGU